Terminal Aerodrome Forecast
Issued by NWS St Louis, MO

Home | Current Version | Previous Version | Text Only | Print | Product List | Glossary On
Versions: 1 2 3 4 5 6 7 8 9 10 11 12 13 14 15 16 17 18 19 20 21 22 23 24 25 26 27 28 29 30 31 32 33 34
000
FTUS43 KLSX 242000 AAA
TAFSTL
TAF AMD
KSTL 242051Z 2421/2524 17015G25KT P6SM VCSH SCT060 BKN120
     FM250000 17012G20KT P6SM BKN050
     FM250200 15014KT 5SM -SHRA VCTS BKN030CB OVC050
     FM250800 20014KT P6SM SCT010 BKN020
     FM251500 18010KT P6SM SCT030=

USA.gov is the U.S. government's official web portal to all federal, state and local government web resources and services.